sensor_id;sensor_type;location;lat;lon;timestamp;pressure;altitude;pressure_sealevel;temperature;humidity
56912;BME280;42800;53.928;27.662;2023-03-16T00:01:03;99244.72;;;2.38;100.00
56912;BME280;42800;53.928;27.662;2023-03-16T00:03:29;99242.66;;;2.43;100.00
56912;BME280;42800;53.928;27.662;2023-03-16T00:05:55;99243.78;;;2.42;100.00
56912;BME280;42800;53.928;27.662;2023-03-16T00:08:21;99244.16;;;2.27;100.00
56912;BME280;42800;53.928;27.662;2023-03-16T00:10:47;99238.44;;;2.28;100.00
56912;BME280;42800;53.928;27.662;2023-03-16T00:13:13;99252.09;;;2.23;100.00
56912;BME280;42800;53.928;27.662;2023-03-16T00:15:40;99263.72;;;2.24;100.00
56912;BME280;42800;53.928;27.662;2023-03-16T00:18:06;99261.91;;;2.19;100.00
56912;BME280;42800;53.928;27.662;2023-03-16T00:20:32;99261.69;;;2.29;100.00
56912;BME280;42800;53.928;27.662;2023-03-16T00:22:58;99271.50;;;2.25;100.00
56912;BME280;42800;53.928;27.662;2023-03-16T00:25:26;99272.22;;;2.31;100.00
56912;BME280;42800;53.928;27.662;2023-03-16T00:27:52;99268.94;;;2.20;100.00
56912;BME280;42800;53.928;27.662;2023-03-16T00:30:18;99268.44;;;2.18;100.00
56912;BME280;42800;53.928;27.662;2023-03-16T00:32:45;99268.94;;;2.20;100.00
56912;BME280;42800;53.928;27.662;2023-03-16T00:35:11;99272.03;;;2.27;100.00
56912;BME280;42800;53.928;27.662;2023-03-16T00:37:37;99274.28;;;2.34;100.00
56912;BME280;42800;53.928;27.662;2023-03-16T00:40:04;99273.19;;;2.35;100.00
56912;BME280;42800;53.928;27.662;2023-03-16T00:42:32;99268.38;;;2.32;100.00
56912;BME280;42800;53.928;27.662;2023-03-16T00:44:59;99270.09;;;2.28;100.00
56912;BME280;42800;53.928;27.662;2023-03-16T00:47:27;99270.03;;;2.19;100.00
56912;BME280;42800;53.928;27.662;2023-03-16T00:49:54;99271.88;;;2.10;100.00
56912;BME280;42800;53.928;27.662;2023-03-16T00:52:21;99271.94;;;2.19;100.00
56912;BME280;42800;53.928;27.662;2023-03-16T00:54:48;99271.16;;;2.18;100.00
56912;BME280;42800;53.928;27.662;2023-03-16T00:57:15;99279.06;;;2.15;100.00
56912;BME280;42800;53.928;27.662;2023-03-16T00:59:43;99272.78;;;2.05;100.00
56912;BME280;42800;53.928;27.662;2023-03-16T01:02:10;99270.59;;;2.07;100.00
56912;BME280;42800;53.928;27.662;2023-03-16T01:04:37;99276.00;;;2.07;100.00
56912;BME280;42800;53.928;27.662;2023-03-16T01:07:05;99282.75;;;2.19;100.00
56912;BME280;42800;53.928;27.662;2023-03-16T01:09:31;99278.38;;;2.09;100.00
56912;BME280;42800;53.928;27.662;2023-03-16T01:12:01;99274.97;;;2.17;100.00
56912;BME280;42800;53.928;27.662;2023-03-16T01:14:27;99298.28;;;2.27;100.00
56912;BME280;42800;53.928;27.662;2023-03-16T01:16:53;99296.78;;;2.21;100.00
56912;BME280;42800;53.928;27.662;2023-03-16T01:19:19;99302.06;;;1.89;100.00
56912;BME280;42800;53.928;27.662;2023-03-16T01:21:47;99301.22;;;2.03;100.00
56912;BME280;42800;53.928;27.662;2023-03-16T01:24:13;99290.66;;;1.93;100.00
56912;BME280;42800;53.928;27.662;2023-03-16T01:26:39;99302.44;;;2.10;100.00
56912;BME280;42800;53.928;27.662;2023-03-16T01:29:05;99295.69;;;1.85;100.00
56912;BME280;42800;53.928;27.662;2023-03-16T01:31:31;99297.25;;;1.86;100.00
56912;BME280;42800;53.928;27.662;2023-03-16T01:33:57;99296.44;;;2.00;100.00
56912;BME280;42800;53.928;27.662;2023-03-16T01:36:23;99306.50;;;1.85;100.00
56912;BME280;42800;53.928;27.662;2023-03-16T01:38:49;99314.69;;;1.94;100.00
56912;BME280;42800;53.928;27.662;2023-03-16T01:41:16;99319.00;;;1.81;100.00
56912;BME280;42800;53.928;27.662;2023-03-16T01:43:42;99320.50;;;1.87;100.00
56912;BME280;42800;53.928;27.662;2023-03-16T01:46:18;99320.91;;;1.95;100.00
56912;BME280;42800;53.928;27.662;2023-03-16T01:49:01;99323.53;;;1.72;100.00
56912;BME280;42800;53.928;27.662;2023-03-16T01:51:34;99326.34;;;1.81;100.00
56912;BME280;42800;53.928;27.662;2023-03-16T01:54:04;99325.22;;;1.82;100.00
56912;BME280;42800;53.928;27.662;2023-03-16T01:56:37;99316.53;;;1.71;100.00
56912;BME280;42800;53.928;27.662;2023-03-16T01:59:07;99312.03;;;1.80;100.00
56912;BME280;42800;53.928;27.662;2023-03-16T02:01:34;99311.41;;;1.83;100.00
56912;BME280;42800;53.928;27.662;2023-03-16T02:04:07;99308.81;;;1.78;100.00
56912;BME280;42800;53.928;27.662;2023-03-16T02:06:38;99301.09;;;1.72;100.00
56912;BME280;42800;53.928;27.662;2023-03-16T02:09:05;99297.28;;;1.73;100.00
56912;BME280;42800;53.928;27.662;2023-03-16T02:11:33;99299.91;;;1.78;100.00
56912;BME280;42800;53.928;27.662;2023-03-16T02:14:03;99304.72;;;1.67;100.00
56912;BME280;42800;53.928;27.662;2023-03-16T02:16:31;99316.31;;;1.81;100.00
56912;BME280;42800;53.928;27.662;2023-03-16T02:18:57;99325.25;;;1.68;100.00
56912;BME280;42800;53.928;27.662;2023-03-16T02:21:30;99320.72;;;1.77;100.00
56912;BME280;42800;53.928;27.662;2023-03-16T02:23:59;99323.22;;;1.87;100.00
56912;BME280;42800;53.928;27.662;2023-03-16T02:26:35;99321.91;;;1.85;100.00
56912;BME280;42800;53.928;27.662;2023-03-16T02:29:16;99322.09;;;1.88;100.00
56912;BME280;42800;53.928;27.662;2023-03-16T02:31:45;99319.13;;;1.90;100.00
56912;BME280;42800;53.928;27.662;2023-03-16T02:34:12;99314.13;;;1.83;100.00
56912;BME280;42800;53.928;27.662;2023-03-16T02:36:39;99316.19;;;1.86;100.00
56912;BME280;42800;53.928;27.662;2023-03-16T02:39:06;99332.81;;;1.94;100.00
56912;BME280;42800;53.928;27.662;2023-03-16T02:41:33;99326.91;;;1.92;100.00
56912;BME280;42800;53.928;27.662;2023-03-16T02:44:03;99330.53;;;1.87;100.00
56912;BME280;42800;53.928;27.662;2023-03-16T02:46:35;99331.56;;;1.63;100.00
56912;BME280;42800;53.928;27.662;2023-03-16T02:49:07;99339.03;;;1.67;100.00
56912;BME280;42800;53.928;27.662;2023-03-16T02:51:36;99337.03;;;1.72;100.00
56912;BME280;42800;53.928;27.662;2023-03-16T02:54:02;99333.75;;;1.61;100.00
56912;BME280;42800;53.928;27.662;2023-03-16T02:56:28;99338.34;;;1.75;100.00
56912;BME280;42800;53.928;27.662;2023-03-16T02:58:54;99349.25;;;1.70;100.00
56912;BME280;42800;53.928;27.662;2023-03-16T03:01:21;99366.69;;;1.77;100.00
56912;BME280;42800;53.928;27.662;2023-03-16T03:03:47;99371.28;;;1.63;100.00
56912;BME280;42800;53.928;27.662;2023-03-16T03:06:14;99371.97;;;1.82;100.00
56912;BME280;42800;53.928;27.662;2023-03-16T03:08:40;99367.88;;;1.85;100.00
56912;BME280;42800;53.928;27.662;2023-03-16T03:11:07;99370.47;;;1.90;100.00
56912;BME280;42800;53.928;27.662;2023-03-16T03:13:33;99372.28;;;1.81;100.00
56912;BME280;42800;53.928;27.662;2023-03-16T03:15:59;99372.75;;;1.83;100.00
56912;BME280;42800;53.928;27.662;2023-03-16T03:18:26;99375.69;;;1.73;100.00
56912;BME280;42800;53.928;27.662;2023-03-16T03:20:52;99379.50;;;1.58;100.00
56912;BME280;42800;53.928;27.662;2023-03-16T03:23:19;99378.97;;;1.28;100.00
56912;BME280;42800;53.928;27.662;2023-03-16T03:25:45;99381.19;;;1.54;100.00
56912;BME280;42800;53.928;27.662;2023-03-16T03:28:12;99379.88;;;1.51;100.00
56912;BME280;42800;53.928;27.662;2023-03-16T03:30:39;99384.78;;;1.49;100.00
56912;BME280;42800;53.928;27.662;2023-03-16T03:33:04;99377.19;;;1.37;100.00
56912;BME280;42800;53.928;27.662;2023-03-16T03:35:30;99391.47;;;1.38;100.00
56912;BME280;42800;53.928;27.662;2023-03-16T03:37:56;99397.50;;;1.49;100.00
56912;BME280;42800;53.928;27.662;2023-03-16T03:40:23;99402.13;;;1.15;100.00
56912;BME280;42800;53.928;27.662;2023-03-16T03:42:49;99405.19;;;1.41;100.00
56912;BME280;42800;53.928;27.662;2023-03-16T03:45:16;99393.47;;;1.32;100.00
56912;BME280;42800;53.928;27.662;2023-03-16T03:47:43;99404.47;;;1.36;100.00
56912;BME280;42800;53.928;27.662;2023-03-16T03:50:10;99408.69;;;1.42;100.00
56912;BME280;42800;53.928;27.662;2023-03-16T03:52:36;99406.72;;;1.48;100.00
56912;BME280;42800;53.928;27.662;2023-03-16T03:55:03;99408.50;;;1.52;100.00
56912;BME280;42800;53.928;27.662;2023-03-16T03:57:29;99406.41;;;1.49;100.00
56912;BME280;42800;53.928;27.662;2023-03-16T03:59:55;99401.59;;;1.46;100.00
56912;BME280;42800;53.928;27.662;2023-03-16T04:02:21;99404.09;;;1.42;100.00
56912;BME280;42800;53.928;27.662;2023-03-16T04:04:47;99403.06;;;1.25;100.00
56912;BME280;42800;53.928;27.662;2023-03-16T04:07:13;99403.59;;;1.27;100.00
56912;BME280;42800;53.928;27.662;2023-03-16T04:09:39;99412.34;;;1.18;100.00
56912;BME280;42800;53.928;27.662;2023-03-16T04:12:06;99409.47;;;0.96;100.00
56912;BME280;42800;53.928;27.662;2023-03-16T04:14:33;99421.34;;;1.14;100.00
56912;BME280;42800;53.928;27.662;2023-03-16T04:16:59;99417.09;;;0.94;100.00
56912;BME280;42800;53.928;27.662;2023-03-16T04:19:25;99416.75;;;1.14;100.00
56912;BME280;42800;53.928;27.662;2023-03-16T04:21:51;99418.34;;;1.15;100.00
56912;BME280;42800;53.928;27.662;2023-03-16T04:24:17;99407.72;;;1.05;100.00
56912;BME280;42800;53.928;27.662;2023-03-16T04:26:44;99416.53;;;1.11;100.00
56912;BME280;42800;53.928;27.662;2023-03-16T04:29:10;99412.22;;;1.10;100.00
56912;BME280;42800;53.928;27.662;2023-03-16T04:31:37;99415.91;;;1.00;100.00
56912;BME280;42800;53.928;27.662;2023-03-16T04:34:03;99415.09;;;1.00;100.00
56912;BME280;42800;53.928;27.662;2023-03-16T04:36:29;99411.16;;;0.92;100.00
56912;BME280;42800;53.928;27.662;2023-03-16T04:38:57;99421.91;;;0.97;100.00
56912;BME280;42800;53.928;27.662;2023-03-16T04:41:23;99424.50;;;1.02;100.00
56912;BME280;42800;53.928;27.662;2023-03-16T04:43:49;99423.31;;;0.76;100.00
56912;BME280;42800;53.928;27.662;2023-03-16T04:46:15;99441.41;;;0.75;100.00
56912;BME280;42800;53.928;27.662;2023-03-16T04:48:42;99441.75;;;0.68;100.00
56912;BME280;42800;53.928;27.662;2023-03-16T04:51:08;99435.94;;;0.80;100.00
56912;BME280;42800;53.928;27.662;2023-03-16T04:53:34;99432.94;;;0.82;100.00
56912;BME280;42800;53.928;27.662;2023-03-16T04:56:00;99445.09;;;0.98;100.00
56912;BME280;42800;53.928;27.662;2023-03-16T04:58:26;99447.28;;;0.96;100.00
56912;BME280;42800;53.928;27.662;2023-03-16T05:00:53;99441.06;;;1.14;100.00
56912;BME280;42800;53.928;27.662;2023-03-16T05:03:20;99439.56;;;1.22;100.00
56912;BME280;42800;53.928;27.662;2023-03-16T05:05:48;99438.19;;;1.25;100.00
56912;BME280;42800;53.928;27.662;2023-03-16T05:08:14;99432.22;;;1.09;100.00
56912;BME280;42800;53.928;27.662;2023-03-16T05:10:40;99436.81;;;1.08;100.00
56912;BME280;42800;53.928;27.662;2023-03-16T05:13:06;99440.66;;;1.21;100.00
56912;BME280;42800;53.928;27.662;2023-03-16T05:15:33;99438.78;;;1.35;100.00
56912;BME280;42800;53.928;27.662;2023-03-16T05:17:59;99436.41;;;1.34;100.00
56912;BME280;42800;53.928;27.662;2023-03-16T05:20:26;99422.91;;;1.48;100.00
56912;BME280;42800;53.928;27.662;2023-03-16T05:22:52;99413.72;;;1.62;100.00
56912;BME280;42800;53.928;27.662;2023-03-16T05:25:19;99387.88;;;1.56;100.00
56912;BME280;42800;53.928;27.662;2023-03-16T05:27:47;99362.09;;;1.64;100.00
56912;BME280;42800;53.928;27.662;2023-03-16T05:30:14;99336.06;;;1.68;100.00
56912;BME280;42800;53.928;27.662;2023-03-16T05:32:41;99319.44;;;1.75;100.00
56912;BME280;42800;53.928;27.662;2023-03-16T05:35:08;99287.00;;;1.61;100.00
56912;BME280;42800;53.928;27.662;2023-03-16T05:37:34;99270.06;;;1.69;100.00
56912;BME280;42800;53.928;27.662;2023-03-16T05:40:03;99262.66;;;1.75;100.00
56912;BME280;42800;53.928;27.662;2023-03-16T05:42:36;99244.41;;;1.94;100.00
56912;BME280;42800;53.928;27.662;2023-03-16T05:45:02;99206.41;;;1.99;100.00
56912;BME280;42800;53.928;27.662;2023-03-16T05:47:28;99155.19;;;1.94;100.00
56912;BME280;42800;53.928;27.662;2023-03-16T05:49:54;99137.13;;;1.81;100.00
56912;BME280;42800;53.928;27.662;2023-03-16T05:52:20;99151.84;;;1.75;100.00
56912;BME280;42800;53.928;27.662;2023-03-16T05:54:46;99174.16;;;2.03;100.00
56912;BME280;42800;53.928;27.662;2023-03-16T05:57:13;99145.94;;;1.95;100.00
56912;BME280;42800;53.928;27.662;2023-03-16T05:59:38;99119.28;;;2.02;100.00
56912;BME280;42800;53.928;27.662;2023-03-16T06:02:04;99080.13;;;2.00;100.00
56912;BME280;42800;53.928;27.662;2023-03-16T06:04:31;99048.53;;;2.09;100.00
56912;BME280;42800;53.928;27.662;2023-03-16T06:06:57;99027.38;;;2.11;100.00
56912;BME280;42800;53.928;27.662;2023-03-16T06:09:23;99004.97;;;2.10;100.00
56912;BME280;42800;53.928;27.662;2023-03-16T06:11:48;98991.63;;;2.23;100.00
56912;BME280;42800;53.928;27.662;2023-03-16T06:14:15;98987.13;;;2.09;100.00
56912;BME280;42800;53.928;27.662;2023-03-16T06:16:41;99004.97;;;2.10;100.00
56912;BME280;42800;53.928;27.662;2023-03-16T06:19:07;99004.78;;;2.07;100.00
56912;BME280;42800;53.928;27.662;2023-03-16T06:21:33;99029.63;;;2.18;100.00
56912;BME280;42800;53.928;27.662;2023-03-16T06:23:59;98975.22;;;1.79;100.00
56912;BME280;42800;53.928;27.662;2023-03-16T06:26:25;99001.59;;;2.05;100.00
56912;BME280;42800;53.928;27.662;2023-03-16T06:28:51;98966.09;;;2.06;100.00
56912;BME280;42800;53.928;27.662;2023-03-16T06:31:18;98949.00;;;1.80;100.00
56912;BME280;42800;53.928;27.662;2023-03-16T06:33:44;98974.53;;;2.05;100.00
56912;BME280;42800;53.928;27.662;2023-03-16T06:36:10;98955.78;;;2.08;100.00
56912;BME280;42800;53.928;27.662;2023-03-16T06:38:36;98919.72;;;2.30;100.00
56912;BME280;42800;53.928;27.662;2023-03-16T06:41:02;98903.19;;;2.41;100.00
56912;BME280;42800;53.928;27.662;2023-03-16T06:43:28;98895.88;;;2.41;100.00
56912;BME280;42800;53.928;27.662;2023-03-16T06:45:54;98886.66;;;2.33;100.00
56912;BME280;42800;53.928;27.662;2023-03-16T06:48:20;98897.63;;;2.54;100.00
56912;BME280;42800;53.928;27.662;2023-03-16T06:50:46;98850.00;;;2.79;100.00
56912;BME280;42800;53.928;27.662;2023-03-16T06:53:12;98782.44;;;2.92;100.00
56912;BME280;42800;53.928;27.662;2023-03-16T06:55:38;98775.19;;;3.13;100.00
56912;BME280;42800;53.928;27.662;2023-03-16T06:58:04;98694.69;;;3.22;100.00
56912;BME280;42800;53.928;27.662;2023-03-16T07:00:30;98629.47;;;3.06;100.00
56912;BME280;42800;53.928;27.662;2023-03-16T07:02:59;98571.88;;;3.18;100.00
56912;BME280;42800;53.928;27.662;2023-03-16T07:05:26;98528.22;;;3.53;100.00
56912;BME280;42800;53.928;27.662;2023-03-16T07:07:52;98518.84;;;3.96;100.00
56912;BME280;42800;53.928;27.662;2023-03-16T07:10:18;98405.53;;;4.14;100.00
56912;BME280;42800;53.928;27.662;2023-03-16T07:12:45;98285.63;;;4.36;100.00
56912;BME280;42800;53.928;27.662;2023-03-16T07:15:12;98227.22;;;4.70;100.00
56912;BME280;42800;53.928;27.662;2023-03-16T07:17:38;98192.09;;;5.09;100.00
56912;BME280;42800;53.928;27.662;2023-03-16T07:20:06;98163.44;;;5.12;100.00
56912;BME280;42800;53.928;27.662;2023-03-16T07:22:35;98161.78;;;4.91;100.00
56912;BME280;42800;53.928;27.662;2023-03-16T07:25:01;98164.75;;;5.18;100.00
56912;BME280;42800;53.928;27.662;2023-03-16T07:27:27;98168.00;;;5.43;100.00
56912;BME280;42800;53.928;27.662;2023-03-16T07:29:54;98188.31;;;4.66;100.00
56912;BME280;42800;53.928;27.662;2023-03-16T07:32:20;98183.94;;;4.62;100.00
56912;BME280;42800;53.928;27.662;2023-03-16T07:34:46;98195.22;;;4.48;100.00
56912;BME280;42800;53.928;27.662;2023-03-16T07:37:12;98185.38;;;4.28;100.00
56912;BME280;42800;53.928;27.662;2023-03-16T07:39:39;98199.16;;;4.35;100.00
56912;BME280;42800;53.928;27.662;2023-03-16T07:42:06;98197.56;;;4.06;100.00
56912;BME280;42800;53.928;27.662;2023-03-16T07:44:33;98197.75;;;4.13;100.00
56912;BME280;42800;53.928;27.662;2023-03-16T07:46:58;98198.16;;;4.27;100.00
56912;BME280;42800;53.928;27.662;2023-03-16T07:49:24;98205.16;;;4.28;100.00
56912;BME280;42800;53.928;27.662;2023-03-16T07:51:50;98200.16;;;4.58;100.00
56912;BME280;42800;53.928;27.662;2023-03-16T07:54:16;98198.00;;;4.36;100.00
56912;BME280;42800;53.928;27.662;2023-03-16T07:56:43;98193.94;;;4.30;100.00
56912;BME280;42800;53.928;27.662;2023-03-16T07:59:09;98201.94;;;4.38;100.00
56912;BME280;42800;53.928;27.662;2023-03-16T08:01:35;98196.81;;;4.65;100.00
56912;BME280;42800;53.928;27.662;2023-03-16T08:04:01;98197.34;;;4.55;100.00
56912;BME280;42800;53.928;27.662;2023-03-16T08:06:26;98192.69;;;4.55;100.00
56912;BME280;42800;53.928;27.662;2023-03-16T08:08:53;98202.16;;;4.61;100.00
56912;BME280;42800;53.928;27.662;2023-03-16T08:11:19;98205.22;;;4.44;100.00
56912;BME280;42800;53.928;27.662;2023-03-16T08:13:48;98207.09;;;4.28;100.00
56912;BME280;42800;53.928;27.662;2023-03-16T08:16:18;98206.81;;;4.17;100.00
56912;BME280;42800;53.928;27.662;2023-03-16T08:18:44;98213.13;;;4.21;100.00
56912;BME280;42800;53.928;27.662;2023-03-16T08:21:10;98221.94;;;4.18;100.00
56912;BME280;42800;53.928;27.662;2023-03-16T08:23:36;98233.09;;;4.29;100.00
56912;BME280;42800;53.928;27.662;2023-03-16T08:26:02;98227.31;;;4.30;100.00
56912;BME280;42800;53.928;27.662;2023-03-16T08:28:33;98228.91;;;4.31;100.00
56912;BME280;42800;53.928;27.662;2023-03-16T08:30:59;98229.19;;;4.14;100.00
56912;BME280;42800;53.928;27.662;2023-03-16T08:33:25;98234.56;;;4.26;100.00
56912;BME280;42800;53.928;27.662;2023-03-16T08:35:52;98232.44;;;4.19;100.00
56912;BME280;42800;53.928;27.662;2023-03-16T08:38:18;98241.03;;;4.21;100.00
56912;BME280;42800;53.928;27.662;2023-03-16T08:40:45;98241.41;;;4.36;100.00
56912;BME280;42800;53.928;27.662;2023-03-16T08:43:13;98242.34;;;4.56;100.00
56912;BME280;42800;53.928;27.662;2023-03-16T08:45:39;98244.34;;;4.15;100.00
56912;BME280;42800;53.928;27.662;2023-03-16T08:48:05;98241.25;;;4.16;100.00
56912;BME280;42800;53.928;27.662;2023-03-16T08:50:32;98250.00;;;4.38;100.00
56912;BME280;42800;53.928;27.662;2023-03-16T08:52:58;98249.47;;;4.04;100.00
56912;BME280;42800;53.928;27.662;2023-03-16T08:55:25;98255.97;;;4.15;100.00
56912;BME280;42800;53.928;27.662;2023-03-16T08:57:51;98248.97;;;4.42;100.00
56912;BME280;42800;53.928;27.662;2023-03-16T09:00:17;98248.66;;;4.32;100.00
56912;BME280;42800;53.928;27.662;2023-03-16T09:02:44;98251.69;;;4.42;100.00
56912;BME280;42800;53.928;27.662;2023-03-16T09:05:13;98243.06;;;4.68;100.00
56912;BME280;42800;53.928;27.662;2023-03-16T09:07:39;98250.28;;;4.92;100.00
56912;BME280;42800;53.928;27.662;2023-03-16T09:10:06;98240.91;;;5.06;100.00
56912;BME280;42800;53.928;27.662;2023-03-16T09:12:35;98243.81;;;4.97;100.00
56912;BME280;42800;53.928;27.662;2023-03-16T09:15:01;98253.69;;;4.89;100.00
56912;BME280;42800;53.928;27.662;2023-03-16T09:17:27;98259.41;;;4.56;100.00
56912;BME280;42800;53.928;27.662;2023-03-16T09:19:53;98245.00;;;4.12;100.00
56912;BME280;42800;53.928;27.662;2023-03-16T09:22:20;98248.63;;;4.16;100.00
56912;BME280;42800;53.928;27.662;2023-03-16T09:24:47;98243.69;;;4.34;100.00
56912;BME280;42800;53.928;27.662;2023-03-16T09:27:13;98247.84;;;4.43;100.00
56912;BME280;42800;53.928;27.662;2023-03-16T09:29:39;98242.88;;;4.61;100.00
56912;BME280;42800;53.928;27.662;2023-03-16T09:32:06;98249.06;;;5.06;100.00
56912;BME280;42800;53.928;27.662;2023-03-16T09:34:32;98249.31;;;4.85;100.00
56912;BME280;42800;53.928;27.662;2023-03-16T09:36:58;98254.47;;;5.06;100.00
56912;BME280;42800;53.928;27.662;2023-03-16T09:39:25;98253.00;;;5.40;100.00
56912;BME280;42800;53.928;27.662;2023-03-16T09:41:54;98273.19;;;5.23;100.00
56912;BME280;42800;53.928;27.662;2023-03-16T09:44:38;98271.03;;;5.32;100.00
56912;BME280;42800;53.928;27.662;2023-03-16T09:47:10;98262.91;;;5.32;100.00
56912;BME280;42800;53.928;27.662;2023-03-16T09:49:41;98283.66;;;5.56;100.00
56912;BME280;42800;53.928;27.662;2023-03-16T09:52:15;98298.41;;;5.55;100.00
56912;BME280;42800;53.928;27.662;2023-03-16T09:54:48;98305.41;;;5.56;100.00
56912;BME280;42800;53.928;27.662;2023-03-16T09:57:24;98317.66;;;5.66;100.00
56912;BME280;42800;53.928;27.662;2023-03-16T09:59:52;98334.34;;;5.64;100.00
56912;BME280;42800;53.928;27.662;2023-03-16T10:02:40;98324.50;;;5.76;100.00
56912;BME280;42800;53.928;27.662;2023-03-16T10:05:11;98354.41;;;6.07;100.00
56912;BME280;42800;53.928;27.662;2023-03-16T10:07:44;98374.75;;;6.49;100.00
56912;BME280;42800;53.928;27.662;2023-03-16T10:10:20;98413.38;;;6.54;100.00
56912;BME280;42800;53.928;27.662;2023-03-16T10:12:51;98461.75;;;6.77;100.00
56912;BME280;42800;53.928;27.662;2023-03-16T10:15:19;98526.91;;;6.86;100.00
56912;BME280;42800;53.928;27.662;2023-03-16T10:17:51;98555.13;;;6.93;100.00
56912;BME280;42800;53.928;27.662;2023-03-16T10:20:22;98581.06;;;6.87;100.00
56912;BME280;42800;53.928;27.662;2023-03-16T10:22:50;98571.22;;;6.82;100.00
56912;BME280;42800;53.928;27.662;2023-03-16T10:25:21;98533.13;;;6.51;100.00
56912;BME280;42800;53.928;27.662;2023-03-16T10:27:49;98514.09;;;5.75;100.00
56912;BME280;42800;53.928;27.662;2023-03-16T10:30:20;98456.56;;;6.36;100.00
56912;BME280;42800;53.928;27.662;2023-03-16T10:32:47;98558.97;;;6.41;100.00
56912;BME280;42800;53.928;27.662;2023-03-16T10:35:21;98578.88;;;6.61;100.00
56912;BME280;42800;53.928;27.662;2023-03-16T10:37:51;98592.91;;;6.16;100.00
56912;BME280;42800;53.928;27.662;2023-03-16T10:40:18;98592.75;;;6.56;100.00
56912;BME280;42800;53.928;27.662;2023-03-16T10:42:44;98583.72;;;6.36;100.00
56912;BME280;42800;53.928;27.662;2023-03-16T10:45:22;98572.13;;;6.23;100.00
56912;BME280;42800;53.928;27.662;2023-03-16T10:47:49;98533.50;;;6.18;100.00
56912;BME280;42800;53.928;27.662;2023-03-16T10:50:22;98533.88;;;5.88;100.00
56912;BME280;42800;53.928;27.662;2023-03-16T10:52:49;98511.72;;;6.02;100.00
56912;BME280;42800;53.928;27.662;2023-03-16T10:55:22;98557.91;;;6.14;100.00
56912;BME280;42800;53.928;27.662;2023-03-16T10:57:49;98590.44;;;5.95;100.00
56912;BME280;42800;53.928;27.662;2023-03-16T11:00:20;98571.22;;;6.19;100.00
56912;BME280;42800;53.928;27.662;2023-03-16T11:02:47;98590.03;;;5.80;100.00
56912;BME280;42800;53.928;27.662;2023-03-16T11:05:23;98591.44;;;5.90;100.00
56912;BME280;42800;53.928;27.662;2023-03-16T11:07:55;98637.19;;;6.28;100.00
56912;BME280;42800;53.928;27.662;2023-03-16T11:10:29;98621.16;;;5.95;100.00
56912;BME280;42800;53.928;27.662;2023-03-16T11:13:01;98582.75;;;6.28;100.00
56912;BME280;42800;53.928;27.662;2023-03-16T11:15:35;98593.75;;;6.48;100.00
56912;BME280;42800;53.928;27.662;2023-03-16T11:18:01;98626.44;;;6.20;100.00
56912;BME280;42800;53.928;27.662;2023-03-16T11:20:29;98614.31;;;6.01;100.00
56912;BME280;42800;53.928;27.662;2023-03-16T11:22:58;98649.81;;;5.93;100.00
56912;BME280;42800;53.928;27.662;2023-03-16T11:25:28;98636.50;;;5.75;100.00
56912;BME280;42800;53.928;27.662;2023-03-16T11:28:05;98625.00;;;5.94;100.00
56912;BME280;42800;53.928;27.662;2023-03-16T11:30:39;98653.09;;;5.98;100.00
56912;BME280;42800;53.928;27.662;2023-03-16T11:33:07;98654.97;;;5.70;100.00
56912;BME280;42800;53.928;27.662;2023-03-16T11:35:37;98611.53;;;5.57;100.00
56912;BME280;42800;53.928;27.662;2023-03-16T11:38:12;98645.81;;;5.62;100.00
56912;BME280;42800;53.928;27.662;2023-03-16T11:40:48;98657.25;;;5.68;100.00
56912;BME280;42800;53.928;27.662;2023-03-16T11:43:46;98683.03;;;5.46;100.00
56912;BME280;42800;53.928;27.662;2023-03-16T11:46:14;98647.47;;;5.38;100.00
56912;BME280;42800;53.928;27.662;2023-03-16T11:48:49;98624.34;;;5.45;100.00
56912;BME280;42800;53.928;27.662;2023-03-16T11:51:37;98628.94;;;5.56;100.00
56912;BME280;42800;53.928;27.662;2023-03-16T11:54:16;98692.75;;;5.59;100.00
56912;BME280;42800;53.928;27.662;2023-03-16T11:56:52;98716.44;;;5.58;100.00
56912;BME280;42800;53.928;27.662;2023-03-16T11:59:28;98734.78;;;5.74;100.00
56912;BME280;42800;53.928;27.662;2023-03-16T12:02:18;98733.59;;;5.99;100.00
56912;BME280;42800;53.928;27.662;2023-03-16T12:04:57;98750.25;;;5.85;100.00
56912;BME280;42800;53.928;27.662;2023-03-16T12:07:47;98799.59;;;5.47;100.00
56912;BME280;42800;53.928;27.662;2023-03-16T12:10:22;98805.38;;;5.58;100.00
56912;BME280;42800;53.928;27.662;2023-03-16T12:13:03;98812.50;;;5.62;100.00
56912;BME280;42800;53.928;27.662;2023-03-16T12:15:36;98831.19;;;5.52;100.00
56912;BME280;42800;53.928;27.662;2023-03-16T12:18:11;98838.47;;;5.60;100.00
56912;BME280;42800;53.928;27.662;2023-03-16T12:20:44;98820.44;;;5.55;100.00
56912;BME280;42800;53.928;27.662;2023-03-16T12:23:16;98828.25;;;5.57;100.00
56912;BME280;42800;53.928;27.662;2023-03-16T12:25:47;98839.25;;;5.73;100.00
56912;BME280;42800;53.928;27.662;2023-03-16T12:28:20;98812.84;;;5.73;100.00
56912;BME280;42800;53.928;27.662;2023-03-16T12:30:56;98804.91;;;5.80;100.00
56912;BME280;42800;53.928;27.662;2023-03-16T12:33:34;98799.47;;;5.56;100.00
56912;BME280;42800;53.928;27.662;2023-03-16T12:36:06;98824.53;;;5.61;100.00
56912;BME280;42800;53.928;27.662;2023-03-16T12:38:42;98866.78;;;5.71;100.00
56912;BME280;42800;53.928;27.662;2023-03-16T12:41:24;98868.38;;;5.84;100.00
56912;BME280;42800;53.928;27.662;2023-03-16T12:44:00;98876.22;;;5.98;100.00
56912;BME280;42800;53.928;27.662;2023-03-16T12:46:38;98868.75;;;6.07;100.00
56912;BME280;42800;53.928;27.662;2023-03-16T12:49:08;98840.59;;;6.16;100.00
56912;BME280;42800;53.928;27.662;2023-03-16T12:51:36;98836.19;;;5.99;100.00
56912;BME280;42800;53.928;27.662;2023-03-16T12:54:03;98840.59;;;6.16;100.00
56912;BME280;42800;53.928;27.662;2023-03-16T12:56:31;98834.91;;;6.21;100.00